Time;durP1;ratioP1;P1;durP2;ratioP2;P2;SDS_P1;SDS_P2;PMS_P1;PMS_P2;Temp;Humidity;BMP_temperature;BMP_pressure;BME280_temperature;BME280_humidity;BME280_pressure;Samples;Min_cycle;Max_cycle;Signal;HPM_P1;HPM_P2
2023/07/01 00:00:18;;;;;;;11.53;7.73;;;18.20;1.00;;;;;;5034729;28;20213;-78
2023/07/01 00:02:43;;;;;;;11.27;7.50;;;18.10;1.00;;;;;;5032737;28;20667;-78
2023/07/01 00:05:09;;;;;;;11.23;8.00;;;18.10;1.00;;;;;;5037667;28;20640;-81
2023/07/01 00:07:35;;;;;;;11.53;7.87;;;18.10;1.00;;;;;;5034623;28;20269;-80
2023/07/01 00:10:01;;;;;;;9.00;7.00;;;18.10;1.00;;;;;;5030941;28;20704;-82
2023/07/01 00:12:26;;;;;;;11.57;7.77;;;18.00;1.00;;;;;;5034424;28;20229;-80
2023/07/01 00:14:52;;;;;;;10.77;8.27;;;17.90;1.00;;;;;;5023101;28;20491;-79
2023/07/01 00:17:18;;;;;;;8.97;7.63;;;17.90;1.00;;;;;;5021491;28;20182;-81
2023/07/01 00:19:44;;;;;;;10.17;8.40;;;17.80;1.00;;;;;;5030355;28;20692;-80
2023/07/01 00:22:09;;;;;;;12.00;8.57;;;17.80;1.00;;;;;;5030322;28;20444;-79
2023/07/01 00:24:35;;;;;;;12.63;8.80;;;17.70;1.00;;;;;;5030254;28;20193;-81
2023/07/01 00:27:00;;;;;;;10.63;8.43;;;17.60;1.00;;;;;;5030523;28;20186;-79
2023/07/01 00:29:26;;;;;;;10.73;8.50;;;17.50;1.00;;;;;;5028783;28;20214;-79
2023/07/01 00:31:51;;;;;;;12.07;9.03;;;17.50;1.00;;;;;;5029120;28;20200;-78
2023/07/01 00:34:17;;;;;;;11.93;8.10;;;17.40;1.00;;;;;;5030530;28;20260;-81
2023/07/01 00:36:43;;;;;;;15.13;9.00;;;17.50;1.00;;;;;;5028086;28;20194;-80
2023/07/01 00:39:08;;;;;;;12.93;8.87;;;17.50;1.00;;;;;;5027571;28;20186;-79
2023/07/01 00:41:34;;;;;;;12.27;8.17;;;17.40;1.00;;;;;;5029414;28;20233;-81
2023/07/01 00:43:59;;;;;;;12.20;8.00;;;17.40;1.00;;;;;;5027071;28;20360;-79
2023/07/01 00:46:25;;;;;;;11.97;8.37;;;17.30;1.00;;;;;;5030072;28;20190;-77
2023/07/01 00:48:50;;;;;;;17.43;9.03;;;17.30;1.00;;;;;;5029165;28;20209;-81
2023/07/01 00:51:16;;;;;;;10.30;8.70;;;17.10;1.00;;;;;;5030215;28;20292;-79
2023/07/01 00:53:42;;;;;;;13.10;9.20;;;17.00;1.00;;;;;;5030071;28;20213;-79
2023/07/01 00:56:08;;;;;;;11.80;9.50;;;17.00;1.00;;;;;;5027395;28;20239;-79
2023/07/01 00:58:34;;;;;;;11.77;8.40;;;16.90;1.00;;;;;;5029656;28;20186;-79
2023/07/01 01:01:03;;;;;;;12.80;9.03;;;16.90;1.00;;;;;;5025025;28;20584;-81
2023/07/01 01:03:42;;;;;;;13.27;8.40;;;16.90;1.00;;;;;;5029231;28;20536;-79
2023/07/01 01:06:35;;;;;;;11.40;8.57;;;16.90;1.00;;;;;;5029193;28;20842;-79
2023/07/01 01:09:39;;;;;;;14.03;8.40;;;16.80;1.00;;;;;;5026776;28;20532;-79
2023/07/01 01:12:09;;;;;;;13.20;8.93;;;16.80;1.00;;;;;;5023707;28;20464;-79
2023/07/01 01:14:35;;;;;;;15.53;9.27;;;16.80;1.00;;;;;;5027562;28;20483;-79
2023/07/01 01:17:05;;;;;;;17.47;9.50;;;16.90;1.00;;;;;;5025675;28;20850;-80
2023/07/01 01:19:45;;;;;;;18.40;8.93;;;16.90;1.00;;;;;;5028360;28;20551;-80
2023/07/01 01:22:25;;;;;;;11.83;8.67;;;16.80;1.00;;;;;;5031020;28;20935;-79
2023/07/01 01:24:54;;;;;;;16.80;8.40;;;16.60;1.00;;;;;;5024346;28;20527;-79
2023/07/01 01:27:24;;;;;;;11.20;7.87;;;16.60;1.00;;;;;;5031259;28;20451;-82
2023/07/01 01:29:50;;;;;;;11.10;8.20;;;16.60;1.00;;;;;;5030755;28;20464;-80
2023/07/01 01:32:15;;;;;;;12.43;8.30;;;16.50;1.00;;;;;;5031587;28;21203;-80
2023/07/01 01:34:41;;;;;;;20.70;8.70;;;16.60;1.00;;;;;;5027456;28;20239;-80
2023/07/01 01:37:14;;;;;;;12.43;8.37;;;16.40;1.00;;;;;;5030530;28;20253;-79
2023/07/01 01:39:46;;;;;;;10.33;7.73;;;16.40;1.00;;;;;;5028722;28;20466;-81
2023/07/01 01:42:27;;;;;;;11.97;7.90;;;16.40;1.00;;;;;;5029962;28;20439;-77
2023/07/01 01:44:54;;;;;;;9.97;8.00;;;16.40;1.00;;;;;;5028742;28;20435;-79
2023/07/01 01:47:22;;;;;;;13.73;8.57;;;16.40;1.00;;;;;;5026888;28;20540;-81
2023/07/01 01:49:58;;;;;;;10.63;8.00;;;16.40;1.00;;;;;;5026043;28;20448;-77
2023/07/01 01:52:24;;;;;;;11.57;8.23;;;16.30;1.00;;;;;;5025181;28;20529;-76
2023/07/01 01:54:53;;;;;;;13.47;8.90;;;16.30;1.00;;;;;;5029412;28;20583;-79
2023/07/01 01:57:20;;;;;;;22.00;8.43;;;16.30;1.00;;;;;;5025911;28;20444;-80
2023/07/01 01:59:46;;;;;;;10.87;8.50;;;16.20;1.00;;;;;;5026072;28;20980;-77
2023/07/01 02:02:12;;;;;;;14.40;9.70;;;16.20;1.00;;;;;;5024772;28;20468;-79
2023/07/01 02:04:37;;;;;;;12.27;8.73;;;16.20;1.00;;;;;;5028798;28;20182;-81
2023/07/01 02:07:03;;;;;;;15.73;8.77;;;16.20;1.00;;;;;;5028437;28;20189;-80
2023/07/01 02:09:28;;;;;;;13.00;8.80;;;16.20;1.00;;;;;;5027537;28;20224;-79
2023/07/01 02:11:55;;;;;;;10.73;7.87;;;16.20;1.00;;;;;;5027687;28;20185;-79
2023/07/01 02:14:21;;;;;;;13.33;9.10;;;16.10;1.00;;;;;;5027768;28;20209;-77
2023/07/01 02:16:47;;;;;;;13.20;8.13;;;16.20;1.00;;;;;;5025893;28;20444;-79
2023/07/01 02:19:12;;;;;;;11.13;8.00;;;16.10;1.00;;;;;;5027522;28;20437;-81
2023/07/01 02:21:38;;;;;;;11.80;8.07;;;16.10;1.00;;;;;;5026471;28;20291;-80
2023/07/01 02:24:04;;;;;;;12.93;7.83;;;16.20;1.00;;;;;;5026925;28;20201;-79
2023/07/01 02:26:29;;;;;;;9.90;7.70;;;16.20;1.00;;;;;;5029837;28;20185;-79
2023/07/01 02:28:55;;;;;;;10.57;7.50;;;16.30;1.00;;;;;;5029643;28;20670;-78
2023/07/01 02:31:20;;;;;;;10.63;7.83;;;16.30;1.00;;;;;;5032491;28;20201;-78
2023/07/01 02:33:46;;;;;;;9.13;7.00;;;16.30;1.00;;;;;;5030353;28;20193;-79
2023/07/01 02:36:12;;;;;;;10.97;7.30;;;16.40;1.00;;;;;;5032994;28;20186;-78
2023/07/01 02:38:38;;;;;;;12.63;7.20;;;16.30;1.00;;;;;;5027920;28;20192;-80
2023/07/01 02:41:03;;;;;;;13.60;7.40;;;;;;;;;;5029620;28;20687;-81
2023/07/01 02:43:29;;;;;;;12.90;6.83;;;16.40;1.00;;;;;;5027909;28;20225;-79
2023/07/01 02:45:54;;;;;;;10.87;7.07;;;16.40;1.00;;;;;;5030225;28;20189;-79
2023/07/01 02:48:20;;;;;;;13.40;7.00;;;16.40;1.00;;;;;;5031274;28;20201;-78
2023/07/01 02:50:45;;;;;;;9.23;7.20;;;16.40;1.00;;;;;;5028489;28;20256;-79
2023/07/01 02:53:11;;;;;;;9.30;6.83;;;16.40;1.00;;;;;;5031368;28;20256;-79
2023/07/01 02:55:36;;;;;;;11.20;7.23;;;16.40;1.00;;;;;;5030438;28;20198;-78
2023/07/01 02:58:02;;;;;;;11.33;7.10;;;16.30;1.00;;;;;;5028532;28;20224;-81
2023/07/01 03:00:28;;;;;;;13.00;7.30;;;16.30;1.00;;;;;;5030893;28;20224;-75
2023/07/01 03:02:53;;;;;;;14.50;6.83;;;16.30;1.00;;;;;;5030207;28;20265;-78
2023/07/01 03:05:21;;;;;;;9.97;6.27;;;16.30;1.00;;;;;;5031568;28;20189;-78
2023/07/01 03:07:47;;;;;;;11.50;6.67;;;16.20;1.00;;;;;;5030876;28;20181;-81
2023/07/01 03:10:13;;;;;;;10.57;7.20;;;16.30;1.00;;;;;;5030050;28;20464;-81
2023/07/01 03:12:39;;;;;;;11.30;6.70;;;16.30;1.00;;;;;;5028918;28;20818;-78
2023/07/01 03:15:05;;;;;;;10.43;7.27;;;16.30;1.00;;;;;;5027582;28;20451;-78
2023/07/01 03:17:31;;;;;;;9.83;6.80;;;16.30;1.00;;;;;;5029925;28;20182;-75
2023/07/01 03:19:57;;;;;;;11.30;7.30;;;16.30;1.00;;;;;;5030403;28;20210;-78
2023/07/01 03:22:22;;;;;;;12.40;7.40;;;16.30;1.00;;;;;;5029885;28;20182;-78
2023/07/01 03:24:48;;;;;;;9.70;6.90;;;16.20;1.00;;;;;;5031380;28;21011;-78
2023/07/01 03:27:14;;;;;;;9.70;7.00;;;16.20;1.00;;;;;;5029836;28;20185;-78
2023/07/01 03:29:39;;;;;;;9.57;6.27;;;16.20;1.00;;;;;;5028729;28;20221;-78
2023/07/01 03:32:05;;;;;;;10.37;6.60;;;16.20;1.00;;;;;;5027730;28;20190;-79
2023/07/01 03:34:31;;;;;;;10.20;6.20;;;16.20;1.00;;;;;;5022608;28;20240;-77
2023/07/01 03:36:57;;;;;;;8.33;6.60;;;16.30;1.00;;;;;;5028018;28;21093;-79
2023/07/01 03:39:22;;;;;;;10.50;7.10;;;16.20;1.00;;;;;;5029987;28;20225;-78
2023/07/01 03:41:48;;;;;;;11.07;6.50;;;16.20;1.00;;;;;;5029385;28;20209;-78
2023/07/01 03:44:13;;;;;;;10.20;6.97;;;16.30;1.00;;;;;;5030434;28;20289;-79
2023/07/01 03:46:39;;;;;;;11.73;7.10;;;16.20;1.00;;;;;;5030769;28;20200;-83
2023/07/01 03:49:04;;;;;;;11.77;6.87;;;16.30;1.00;;;;;;5029885;28;20190;-78
2023/07/01 03:51:32;;;;;;;10.57;6.83;;;16.30;1.00;;;;;;5029529;28;20185;-80
2023/07/01 03:53:57;;;;;;;11.60;7.47;;;16.30;1.00;;;;;;5028087;28;20277;-80
2023/07/01 03:56:23;;;;;;;9.80;6.43;;;16.30;1.00;;;;;;5028812;28;20452;-81
2023/07/01 03:58:48;;;;;;;14.00;6.70;;;16.30;1.00;;;;;;5029160;28;20279;-78
2023/07/01 04:01:16;;;;;;;12.30;6.27;;;16.30;1.00;;;;;;5029479;28;20221;-79
2023/07/01 04:03:41;;;;;;;10.27;6.27;;;16.30;1.00;;;;;;5029979;28;20675;-79
2023/07/01 04:06:07;;;;;;;11.10;6.50;;;16.40;1.00;;;;;;5026979;28;20440;-80
2023/07/01 04:08:33;;;;;;;9.00;6.80;;;16.40;1.00;;;;;;5028872;28;20182;-79
2023/07/01 04:10:59;;;;;;;10.60;6.47;;;16.40;1.00;;;;;;5029989;28;20224;-79
2023/07/01 04:13:25;;;;;;;10.43;6.33;;;16.40;1.00;;;;;;5029115;28;20678;-80
2023/07/01 04:15:50;;;;;;;8.43;6.30;;;16.50;1.00;;;;;;5024607;28;20557;-80
2023/07/01 04:18:16;;;;;;;7.90;6.53;;;16.60;1.00;;;;;;5031252;28;20190;-81
2023/07/01 04:20:41;;;;;;;9.23;6.80;;;16.60;1.00;;;;;;5031231;28;20225;-78
2023/07/01 04:23:07;;;;;;;10.07;6.93;;;16.60;1.00;;;;;;5031057;28;20182;-79
2023/07/01 04:25:32;;;;;;;8.13;6.20;;;16.70;1.00;;;;;;5023814;28;20186;-80
2023/07/01 04:27:59;;;;;;;9.17;6.60;;;16.70;1.00;;;;;;5030640;28;20174;-81
2023/07/01 04:30:24;;;;;;;8.40;6.63;;;16.70;1.00;;;;;;5027227;28;20209;-83
2023/07/01 04:32:50;;;;;;;10.10;6.90;;;16.70;1.00;;;;;;5027755;28;20440;-80
2023/07/01 04:35:15;;;;;;;7.60;6.40;;;16.80;1.00;;;;;;5028331;28;20185;-85
2023/07/01 04:37:41;;;;;;;10.47;6.07;;;16.80;1.00;;;;;;5028382;28;20185;-79
2023/07/01 04:40:07;;;;;;;10.07;6.20;;;16.90;1.00;;;;;;5029573;28;20241;-82
2023/07/01 04:42:34;;;;;;;11.47;6.63;;;16.90;1.00;;;;;;5027148;28;20682;-81
2023/07/01 04:45:00;;;;;;;13.70;6.63;;;17.00;1.00;;;;;;5028059;28;20439;-78
2023/07/01 04:47:27;;;;;;;12.20;6.67;;;17.00;1.00;;;;;;5019868;28;20519;-80
2023/07/01 04:49:52;;;;;;;9.47;7.30;;;17.10;1.00;;;;;;5027539;28;20455;-80
2023/07/01 04:52:27;;;;;;;9.90;5.90;;;17.10;1.00;;;;;;5028059;28;20550;-80
2023/07/01 04:54:53;;;;;;;9.50;6.13;;;17.00;1.00;;;;;;5027404;28;20178;-79
2023/07/01 04:57:18;;;;;;;13.80;6.50;;;17.20;1.00;;;;;;5030907;28;20511;-79
2023/07/01 04:59:44;;;;;;;9.40;6.67;;;17.20;1.00;;;;;;5033145;28;20206;-80
2023/07/01 05:02:10;;;;;;;7.80;6.57;;;17.20;1.00;;;;;;5030884;28;20235;-79
2023/07/01 05:04:37;;;;;;;10.73;6.70;;;17.20;1.00;;;;;;5031319;28;20244;-80
2023/07/01 05:07:03;;;;;;;12.53;6.60;;;17.30;1.00;;;;;;5023845;28;20178;-79
2023/07/01 05:09:29;;;;;;;11.40;7.00;;;17.30;1.00;;;;;;5031175;28;21028;-80
2023/07/01 05:11:54;;;;;;;10.43;6.90;;;17.30;1.00;;;;;;5032908;28;20284;-80
2023/07/01 05:14:20;;;;;;;7.90;6.20;;;17.30;1.00;;;;;;5032054;28;20321;-80
2023/07/01 05:16:45;;;;;;;11.10;6.03;;;17.30;1.00;;;;;;5031351;28;20563;-79
2023/07/01 05:19:11;;;;;;;7.63;5.93;;;17.40;1.00;;;;;;5031927;28;20211;-83
2023/07/01 05:21:37;;;;;;;9.07;6.50;;;17.40;1.00;;;;;;5028915;28;20213;-76
2023/07/01 05:24:04;;;;;;;13.83;6.47;;;17.50;1.00;;;;;;5028249;28;20181;-79
2023/07/01 05:26:29;;;;;;;14.10;6.07;;;17.60;1.00;;;;;;5029250;28;20902;-80
2023/07/01 05:28:56;;;;;;;8.63;6.30;;;17.70;1.00;;;;;;5029704;28;20443;-82
2023/07/01 05:31:22;;;;;;;10.03;5.87;;;17.70;1.00;;;;;;5024392;28;20205;-81
2023/07/01 05:33:47;;;;;;;9.40;6.50;;;17.80;1.00;;;;;;5021392;28;20433;-81
2023/07/01 05:36:13;;;;;;;9.20;5.30;;;17.90;1.00;;;;;;5029536;28;20278;-78
2023/07/01 05:38:41;;;;;;;10.57;5.80;;;18.00;1.00;;;;;;5029155;28;20193;-80
2023/07/01 05:41:07;;;;;;;10.70;5.73;;;18.10;1.00;;;;;;5029348;28;20221;-79
2023/07/01 05:43:32;;;;;;;6.30;5.47;;;18.10;1.00;;;;;;5027849;28;20432;-79
2023/07/01 05:45:57;;;;;;;10.40;5.73;;;19.50;1.00;;;;;;5028027;28;20616;-79
2023/07/01 05:48:23;;;;;;;6.83;5.20;;;18.20;1.00;;;;;;5037000;28;20192;-79
2023/07/01 05:50:48;;;;;;;13.20;5.70;;;18.40;1.00;;;;;;5029082;28;20260;-79
2023/07/01 05:53:14;;;;;;;7.67;5.53;;;19.80;1.00;;;;;;5028134;28;20197;-77
2023/07/01 05:55:40;;;;;;;10.50;5.13;;;18.60;1.00;;;;;;5026950;28;20369;-83
2023/07/01 05:58:05;;;;;;;8.13;4.50;;;18.80;1.00;;;;;;5033159;28;20187;-80
2023/07/01 06:00:31;;;;;;;11.57;5.03;;;18.80;1.00;;;;;;5019951;28;20873;-81
2023/07/01 06:02:56;;;;;;;19.90;5.53;;;19.00;1.00;;;;;;5025748;28;20204;-80
2023/07/01 06:05:22;;;;;;;11.57;4.20;;;19.10;1.00;;;;;;5033081;28;20202;-81
2023/07/01 06:07:49;;;;;;;9.00;5.47;;;19.10;1.00;;;;;;5031299;28;21502;-82
2023/07/01 06:10:15;;;;;;;9.40;4.13;;;18.90;1.00;;;;;;5032186;28;20228;-82
2023/07/01 06:12:40;;;;;;;10.17;5.10;;;18.90;1.00;;;;;;5032477;28;20432;-81
2023/07/01 06:15:06;;;;;;;9.07;5.10;;;19.00;1.00;;;;;;5033550;28;20190;-81
2023/07/01 06:17:31;;;;;;;6.93;4.70;;;19.10;1.00;;;;;;5032348;28;20193;-81
2023/07/01 06:19:57;;;;;;;5.30;4.47;;;19.20;1.00;;;;;;5031051;28;20206;-79
2023/07/01 06:22:22;;;;;;;12.40;4.50;;;19.30;1.00;;;;;;5027821;28;20189;-82
2023/07/01 06:24:48;;;;;;;7.30;4.53;;;19.20;1.00;;;;;;5034889;28;20228;-83
2023/07/01 06:27:13;;;;;;;11.13;4.80;;;19.30;1.00;;;;;;5031542;28;20254;-82
2023/07/01 06:29:39;;;;;;;11.17;4.63;;;19.30;1.00;;;;;;5033921;28;20285;-79
2023/07/01 06:32:05;;;;;;;7.40;4.73;;;19.30;1.00;;;;;;5029400;28;20182;-81
2023/07/01 06:34:30;;;;;;;8.80;4.77;;;19.40;1.00;;;;;;5036160;28;20185;-81
2023/07/01 06:36:56;;;;;;;7.90;4.20;;;19.40;1.00;;;;;;5033064;28;20938;-80
2023/07/01 06:39:21;;;;;;;6.10;4.17;;;19.40;1.00;;;;;;5035573;28;20273;-80
2023/07/01 06:41:47;;;;;;;10.37;4.20;;;19.50;1.00;;;;;;5035090;28;20281;-81
2023/07/01 06:44:13;;;;;;;12.83;4.10;;;19.50;1.00;;;;;;5037596;28;20192;-81
2023/07/01 06:46:39;;;;;;;8.30;4.90;;;19.50;1.00;;;;;;5035827;28;20235;-84
2023/07/01 06:49:04;;;;;;;6.80;4.30;;;19.50;1.00;;;;;;5033923;28;20424;-83
2023/07/01 06:51:30;;;;;;;6.50;4.17;;;19.50;1.00;;;;;;5036973;28;20190;-82
2023/07/01 06:53:55;;;;;;;10.07;4.00;;;19.50;1.00;;;;;;5035199;28;20236;-83
2023/07/01 06:56:21;;;;;;;9.20;4.03;;;19.40;1.00;;;;;;5035535;28;20570;-83
2023/07/01 06:58:46;;;;;;;9.80;3.80;;;19.60;1.00;;;;;;5035779;28;20190;-81
2023/07/01 07:01:12;;;;;;;6.23;3.53;;;19.70;1.00;;;;;;5029199;28;20232;-82
2023/07/01 07:03:39;;;;;;;6.80;3.90;;;19.90;1.00;;;;;;5031063;28;20186;-82
2023/07/01 07:06:06;;;;;;;8.07;3.70;;;19.90;1.00;;;;;;5034664;28;20178;-82
2023/07/01 07:08:32;;;;;;;8.13;3.70;;;20.10;1.00;;;;;;5035090;28;20931;-82
2023/07/01 07:10:57;;;;;;;7.07;3.60;;;20.40;1.00;;;;;;5034944;28;20479;-81
2023/07/01 07:13:23;;;;;;;6.60;3.63;;;20.50;1.00;;;;;;5030228;28;20209;-81
2023/07/01 07:15:49;;;;;;;6.23;3.60;;;20.60;1.00;;;;;;5038449;28;20727;-83
2023/07/01 07:18:14;;;;;;;9.33;4.10;;;20.70;1.00;;;;;;5037515;28;20190;-82
2023/07/01 07:20:40;;;;;;;13.27;4.07;;;20.80;1.00;;;;;;5038130;28;20260;-82
2023/07/01 07:23:06;;;;;;;9.47;4.07;;;20.80;1.00;;;;;;5037195;28;20177;-81
2023/07/01 07:25:35;;;;;;;7.73;3.80;;;20.70;1.00;;;;;;5029503;28;20632;-82
2023/07/01 07:28:02;;;;;;;8.10;3.72;;;21.30;1.00;;;;;;5047421;22;20474;-75
2023/07/01 07:30:27;;;;;;;8.27;3.37;;;21.40;1.00;;;;;;5029373;28;20221;-70
2023/07/01 07:32:53;;;;;;;7.00;3.97;;;21.60;1.00;;;;;;5026236;28;20490;-75
2023/07/01 07:35:19;;;;;;;10.10;4.70;;;21.50;1.00;;;;;;5032010;28;20231;-72
2023/07/01 07:37:44;;;;;;;6.00;3.80;;;21.50;1.00;;;;;;5031588;28;20223;-72
2023/07/01 07:40:10;;;;;;;7.60;3.77;;;21.50;1.00;;;;;;5031862;28;20216;-72
2023/07/01 07:42:36;;;;;;;7.90;4.20;;;21.80;1.00;;;;;;5031155;28;20190;-73
2023/07/01 07:45:03;;;;;;;9.20;4.30;;;21.90;1.00;;;;;;5030652;28;20431;-73
2023/07/01 07:47:28;;;;;;;6.70;4.07;;;21.90;1.00;;;;;;5031927;28;20239;-72
2023/07/01 07:49:54;;;;;;;7.03;4.00;;;22.00;1.00;;;;;;5031401;28;20440;-72
2023/07/01 07:52:19;;;;;;;6.00;3.83;;;22.30;1.00;;;;;;5030208;28;20545;-73
2023/07/01 07:54:46;;;;;;;6.97;3.87;;;22.20;1.00;;;;;;5031359;28;20682;-71
2023/07/01 07:57:12;;;;;;;6.30;3.90;;;22.10;1.00;;;;;;5027899;28;20182;-73
2023/07/01 07:59:40;;;;;;;6.83;3.60;;;22.20;1.00;;;;;;5024008;28;20850;-75
2023/07/01 08:02:06;;;;;;;6.63;3.50;;;22.40;1.00;;;;;;5030889;28;20464;-73
2023/07/01 08:04:32;;;;;;;6.80;3.97;;;22.50;1.00;;;;;;5031746;28;20481;-73
2023/07/01 08:06:59;;;;;;;9.90;4.00;;;22.80;1.00;;;;;;5031195;28;20178;-73
2023/07/01 08:09:25;;;;;;;6.67;3.53;;;22.80;1.00;;;;;;5031195;28;20451;-75
2023/07/01 08:11:50;;;;;;;11.83;4.20;;;22.70;1.00;;;;;;5027297;28;20431;-74
2023/07/01 08:14:18;;;;;;;6.37;3.40;;;22.70;1.00;;;;;;5027770;28;20193;-75
2023/07/01 08:16:43;;;;;;;8.47;3.40;;;22.70;1.00;;;;;;5031077;28;20608;-75
2023/07/01 08:19:09;;;;;;;6.10;3.30;;;22.80;1.00;;;;;;5030493;28;20537;-73
2023/07/01 08:21:35;;;;;;;6.20;3.40;;;23.10;1.00;;;;;;5030641;28;20216;-73
2023/07/01 08:24:01;;;;;;;9.63;3.97;;;23.40;1.00;;;;;;5030567;28;20264;-74
2023/07/01 08:26:27;;;;;;;7.20;3.93;;;23.60;1.00;;;;;;5034840;28;20502;-72
2023/07/01 08:28:53;;;;;;;7.50;3.50;;;23.70;1.00;;;;;;5033242;28;20213;-76
2023/07/01 08:31:19;;;;;;;7.07;3.73;;;23.40;1.00;;;;;;5030614;28;20236;-76
2023/07/01 08:33:44;;;;;;;9.53;3.70;;;23.30;1.00;;;;;;5026336;28;20452;-74
2023/07/01 08:36:10;;;;;;;7.00;3.77;;;23.50;1.00;;;;;;5030964;28;20216;-75
2023/07/01 08:38:36;;;;;;;6.53;3.73;;;23.40;1.00;;;;;;5028374;28;20826;-72
2023/07/01 08:41:04;;;;;;;11.53;3.23;;;23.60;1.00;;;;;;5030100;28;20236;-74
2023/07/01 08:43:30;;;;;;;9.57;3.80;;;23.60;1.00;;;;;;5030540;28;20177;-74
2023/07/01 08:46:02;;;;;;;10.23;3.30;;;23.90;1.00;;;;;;5030278;28;20427;-74
2023/07/01 08:48:32;;;;;;;8.03;3.60;;;26.70;1.00;;;;;;5030370;28;20474;-76
2023/07/01 08:51:11;;;;;;;8.80;3.50;;;24.50;1.00;;;;;;5030359;28;20463;-76
2023/07/01 08:53:38;;;;;;;8.60;3.47;;;24.50;1.00;;;;;;5030565;28;20435;-75
2023/07/01 08:56:04;;;;;;;7.70;3.70;;;24.60;1.00;;;;;;5029907;28;20426;-75
2023/07/01 08:58:30;;;;;;;7.70;3.77;;;24.80;1.00;;;;;;5030220;28;20479;-74
2023/07/01 09:00:56;;;;;;;7.23;3.70;;;24.40;1.00;;;;;;5029740;28;20491;-75
2023/07/01 09:03:22;;;;;;;9.70;3.60;;;24.30;1.00;;;;;;5029030;28;20189;-75
2023/07/01 09:05:48;;;;;;;7.83;3.33;;;24.40;1.00;;;;;;5029256;28;20427;-76
2023/07/01 09:08:13;;;;;;;7.67;3.80;;;24.60;1.00;;;;;;5023438;28;20253;-76
2023/07/01 09:10:39;;;;;;;8.43;3.20;;;24.80;1.00;;;;;;5036027;28;20187;-75
2023/07/01 09:13:14;;;;;;;7.50;3.17;;;25.10;1.00;;;;;;5030316;28;20221;-75
2023/07/01 09:15:49;;;;;;;6.53;3.10;;;25.50;1.00;;;;;;5027988;28;20252;-77
2023/07/01 09:18:28;;;;;;;5.40;3.33;;;25.70;1.00;;;;;;5025446;28;21095;-75
2023/07/01 09:20:54;;;;;;;6.77;3.10;;;26.20;1.00;;;;;;5032473;28;20562;-75
2023/07/01 09:23:29;;;;;;;3.77;2.63;;;26.90;1.00;;;;;;5029469;28;20511;-75
2023/07/01 09:26:11;;;;;;;9.33;3.30;;;26.30;1.00;;;;;;5029648;28;20200;-78
2023/07/01 09:28:37;;;;;;;5.67;3.30;;;25.30;1.00;;;;;;5029080;28;20471;-75
2023/07/01 09:31:05;;;;;;;8.13;3.10;;;25.20;1.00;;;;;;5026055;28;20432;-74
2023/07/01 09:33:32;;;;;;;7.80;2.83;;;24.50;1.00;;;;;;5025807;28;20439;-77
2023/07/01 09:36:01;;;;;;;6.53;3.10;;;24.90;1.00;;;;;;5027082;28;20440;-76
2023/07/01 09:38:27;;;;;;;6.23;3.20;;;25.00;1.00;;;;;;5027334;28;20985;-77
2023/07/01 09:40:53;;;;;;;7.03;2.80;;;25.10;1.00;;;;;;5026221;28;20558;-75
2023/07/01 09:43:21;;;;;;;7.53;3.40;;;25.00;1.00;;;;;;5023928;28;20506;-78
2023/07/01 09:45:56;;;;;;;11.03;3.20;;;24.80;1.00;;;;;;5028165;28;20185;-75
2023/07/01 09:48:22;;;;;;;6.37;3.10;;;24.70;1.00;;;;;;5023223;28;20456;-75
2023/07/01 09:50:51;;;;;;;5.00;3.00;;;24.90;1.00;;;;;;5027226;28;20443;-76
2023/07/01 09:53:21;;;;;;;6.43;3.13;;;24.80;1.00;;;;;;5022928;28;20454;-75
2023/07/01 09:55:47;;;;;;;8.17;3.83;;;25.10;1.00;;;;;;5022606;28;20447;-76
2023/07/01 09:58:14;;;;;;;7.30;3.20;;;25.00;1.00;;;;;;5025597;28;20452;-75
2023/07/01 10:00:40;;;;;;;6.73;3.33;;;24.70;1.00;;;;;;5025326;28;20467;-76
2023/07/01 10:03:07;;;;;;;4.27;3.07;;;24.60;1.00;;;;;;5022709;28;20451;-74
2023/07/01 10:05:33;;;;;;;6.10;3.00;;;24.70;1.00;;;;;;5027899;28;20529;-76
2023/07/01 10:07:58;;;;;;;5.43;2.90;;;25.10;1.00;;;;;;5026308;28;20829;-77
2023/07/01 10:10:24;;;;;;;5.80;2.90;;;25.20;1.00;;;;;;5027330;28;20440;-76
2023/07/01 10:12:51;;;;;;;27.40;6.10;;;25.30;1.00;;;;;;5026793;28;20239;-76
2023/07/01 10:15:24;;;;;;;4.10;2.83;;;25.60;1.00;;;;;;5025223;28;20185;-74
2023/07/01 10:17:52;;;;;;;5.00;2.60;;;25.90;1.00;;;;;;5024095;28;20478;-74
2023/07/01 10:20:34;;;;;;;8.00;2.70;;;25.90;1.00;;;;;;5023077;28;20495;-74
2023/07/01 10:23:01;;;;;;;5.27;2.60;;;25.60;1.00;;;;;;5023996;28;20957;-76
2023/07/01 10:25:33;;;;;;;6.13;2.90;;;25.50;1.00;;;;;;5023689;28;20475;-75
2023/07/01 10:27:59;;;;;;;5.40;2.40;;;25.20;1.00;;;;;;5026815;28;20483;-79
2023/07/01 10:30:25;;;;;;;4.93;2.90;;;25.30;1.00;;;;;;5028267;28;20471;-74
2023/07/01 10:32:51;;;;;;;5.90;3.07;;;25.30;1.00;;;;;;5023802;28;20189;-74
2023/07/01 10:35:17;;;;;;;5.90;2.70;;;25.50;1.00;;;;;;5023852;28;20522;-74
2023/07/01 10:38:03;;;;;;;4.23;2.70;;;25.40;1.00;;;;;;5026075;28;20331;-74
2023/07/01 10:40:29;;;;;;;8.20;2.80;;;25.40;1.00;;;;;;5017964;28;20209;-75
2023/07/01 10:43:21;;;;;;;6.00;3.57;;;25.30;1.00;;;;;;5025692;28;20443;-74
2023/07/01 10:46:20;;;;;;;7.23;2.87;;;25.40;1.00;;;;;;5026778;28;20891;-75
2023/07/01 10:49:03;;;;;;;4.57;2.77;;;25.70;1.00;;;;;;5023956;28;20547;-75
2023/07/01 10:51:52;;;;;;;7.40;3.27;;;25.80;1.00;;;;;;5029072;28;20953;-77
2023/07/01 10:54:37;;;;;;;7.03;2.80;;;25.90;1.00;;;;;;5027702;28;20438;-75
2023/07/01 10:57:12;;;;;;;9.60;3.10;;;25.70;1.00;;;;;;5030468;28;20455;-75
2023/07/01 10:59:38;;;;;;;4.97;2.50;;;25.60;1.00;;;;;;5031308;28;20463;-74
2023/07/01 11:02:04;;;;;;;6.73;2.23;;;25.30;1.00;;;;;;5032559;28;20490;-74
2023/07/01 11:04:51;;;;;;;3.93;2.40;;;25.00;1.00;;;;;;5032903;28;20648;-74
2023/07/01 11:07:24;;;;;;;5.73;2.20;;;24.70;1.00;;;;;;5032094;28;20196;-74
2023/07/01 11:09:50;;;;;;;5.00;2.80;;;24.60;1.00;;;;;;5032409;28;20475;-74
2023/07/01 11:12:16;;;;;;;5.30;2.50;;;24.70;1.00;;;;;;5030371;28;20819;-74
2023/07/01 11:14:41;;;;;;;9.33;2.50;;;24.90;1.00;;;;;;5027456;28;20443;-73
2023/07/01 11:17:09;;;;;;;5.97;2.60;;;25.30;1.00;;;;;;5028817;28;20249;-74
2023/07/01 11:19:36;;;;;;;5.23;2.57;;;25.40;1.00;;;;;;5030244;28;20711;-72
2023/07/01 11:22:02;;;;;;;4.93;2.53;;;25.30;1.00;;;;;;5029648;28;20533;-74
2023/07/01 11:24:29;;;;;;;5.60;2.97;;;25.50;1.00;;;;;;5028657;28;20530;-75
2023/07/01 11:27:07;;;;;;;4.50;2.50;;;25.90;1.00;;;;;;5028914;28;20440;-73
2023/07/01 11:29:34;;;;;;;7.97;2.97;;;26.10;1.00;;;;;;5029226;28;20961;-75
2023/07/01 11:32:12;;;;;;;4.43;2.60;;;26.20;1.00;;;;;;5029207;28;20467;-75
2023/07/01 11:34:38;;;;;;;3.80;2.70;;;26.40;1.00;;;;;;5026225;28;20448;-75
2023/07/01 11:37:04;;;;;;;3.63;2.63;;;26.40;1.00;;;;;;5027158;28;20436;-74
2023/07/01 11:39:30;;;;;;;4.90;2.53;;;26.70;1.00;;;;;;5028977;28;20219;-75
2023/07/01 11:42:03;;;;;;;4.00;2.87;;;26.80;1.00;;;;;;5025240;28;20568;-75
2023/07/01 11:44:33;;;;;;;6.93;3.00;;;26.40;1.00;;;;;;5028310;28;20632;-74
2023/07/01 11:46:58;;;;;;;6.37;2.93;;;25.60;1.00;;;;;;5027224;28;20450;-74
2023/07/01 11:49:29;;;;;;;11.63;3.70;;;25.40;1.00;;;;;;5029316;28;20463;-74
2023/07/01 11:51:56;;;;;;;8.70;3.43;;;25.40;1.00;;;;;;5027033;28;20196;-75
2023/07/01 11:54:24;;;;;;;3.80;2.90;;;25.80;1.00;;;;;;5030299;28;20440;-75
2023/07/01 11:57:07;;;;;;;5.17;2.87;;;25.80;1.00;;;;;;5029308;28;20443;-76
2023/07/01 11:59:34;;;;;;;4.60;2.90;;;25.80;1.00;;;;;;5026254;28;20829;-75
2023/07/01 12:02:00;;;;;;;5.13;3.27;;;25.90;1.00;;;;;;5028935;28;20467;-76
2023/07/01 12:04:27;;;;;;;5.80;2.80;;;25.80;1.00;;;;;;5024880;28;20436;-75
2023/07/01 12:07:10;;;;;;;7.53;3.40;;;26.00;1.00;;;;;;5023470;28;20177;-75
2023/07/01 12:09:37;;;;;;;6.90;2.73;;;25.70;1.00;;;;;;5029094;28;20973;-74
2023/07/01 12:12:02;;;;;;;4.50;2.73;;;25.60;1.00;;;;;;5028403;28;20455;-73
2023/07/01 12:14:29;;;;;;;4.83;2.93;;;25.80;1.00;;;;;;5035876;28;20833;-74
2023/07/01 12:16:56;;;;;;;14.23;3.27;;;26.00;1.00;;;;;;5027911;28;20212;-74
2023/07/01 12:19:23;;;;;;;4.70;2.83;;;25.80;1.00;;;;;;5028158;28;20967;-75
2023/07/01 12:21:50;;;;;;;10.73;2.93;;;26.00;1.00;;;;;;5028200;28;20276;-74
2023/07/01 12:24:24;;;;;;;66.83;26.43;;;26.10;1.00;;;;;;5026307;28;20945;-76
2023/07/01 12:26:52;;;;;;;5.60;2.70;;;25.60;1.00;;;;;;5026391;28;21007;-76
2023/07/01 12:29:18;;;;;;;4.03;2.57;;;25.30;1.00;;;;;;5026053;28;21081;-75
2023/07/01 12:31:44;;;;;;;6.47;3.03;;;25.60;1.00;;;;;;5023474;28;20452;-75
2023/07/01 12:34:10;;;;;;;5.97;3.10;;;25.80;1.00;;;;;;5025339;28;20290;-78
2023/07/01 12:36:36;;;;;;;11.37;4.00;;;26.00;1.00;;;;;;5030403;28;20652;-75
2023/07/01 12:39:03;;;;;;;4.60;2.73;;;26.40;1.00;;;;;;5029818;28;20207;-75
2023/07/01 12:41:30;;;;;;;5.40;2.87;;;26.80;1.00;;;;;;5029676;28;20459;-75
2023/07/01 12:43:57;;;;;;;10.17;3.20;;;26.50;1.00;;;;;;5027745;28;20919;-75
2023/07/01 12:46:23;;;;;;;4.97;3.00;;;26.30;1.00;;;;;;5028109;28;20498;-76
2023/07/01 12:48:49;;;;;;;5.40;2.90;;;25.90;1.00;;;;;;5021794;28;20462;-75
2023/07/01 12:51:15;;;;;;;8.80;3.40;;;25.90;1.00;;;;;;5021461;28;20448;-76
2023/07/01 12:53:40;;;;;;;4.80;2.70;;;26.20;1.00;;;;;;5021035;28;20196;-74